createdAt,value
2017-10-24T00:04:50.410Z,0
2017-10-24T00:15:04.862Z,0
2017-10-24T00:25:18.620Z,0
2017-10-24T00:35:33.458Z,0
2017-10-24T00:45:47.650Z,0
2017-10-24T00:56:01.329Z,0
2017-10-24T01:06:15.971Z,0
2017-10-24T01:16:30.964Z,0
2017-10-24T01:26:46.596Z,0
2017-10-24T01:37:01.338Z,0
2017-10-24T01:47:16.080Z,0
2017-10-24T01:57:30.056Z,0
2017-10-24T02:07:45.031Z,0
2017-10-24T02:17:59.474Z,0
2017-10-24T02:28:13.852Z,0
2017-10-24T02:38:27.614Z,0
2017-10-24T02:48:42.691Z,0
2017-10-24T02:58:58.208Z,0
2017-10-24T03:09:12.425Z,0
2017-10-24T03:19:26.817Z,0
2017-10-24T03:29:41.374Z,0
2017-10-24T03:39:55.751Z,0
2017-10-24T03:50:09.791Z,0
2017-10-24T04:00:23.773Z,0
2017-10-24T04:10:38.363Z,0
2017-10-24T04:20:52.520Z,0
2017-10-24T04:31:08.001Z,0
2017-10-24T04:41:22.026Z,0
2017-10-24T04:51:37.600Z,0
2017-10-24T05:01:52.902Z,0
2017-10-24T05:12:06.684Z,0
2017-10-24T05:22:21.875Z,0
2017-10-24T05:32:36.726Z,0
2017-10-24T05:42:50.943Z,0
2017-10-24T05:53:05.238Z,0
2017-10-24T06:03:19.947Z,0
2017-10-24T06:13:34.846Z,0
2017-10-24T06:23:49.643Z,5
2017-10-24T06:34:04.809Z,10
2017-10-24T06:44:19.683Z,15
2017-10-24T06:54:34.076Z,20
2017-10-24T07:04:48.659Z,35
2017-10-24T07:15:03.640Z,50
2017-10-24T07:25:17.821Z,65
2017-10-24T07:35:31.868Z,125
2017-10-24T07:45:47.171Z,95
2017-10-24T07:56:00.932Z,120
2017-10-24T08:06:15.040Z,140
2017-10-24T08:16:30.113Z,120
2017-10-24T08:26:45.023Z,135
2017-10-24T08:37:00.632Z,115
2017-10-24T08:47:14.414Z,135
2017-10-24T08:57:29.088Z,165
2017-10-24T09:07:43.757Z,175
2017-10-24T09:17:59.425Z,135
2017-10-24T09:28:14.703Z,160
2017-10-24T09:38:29.292Z,155
2017-10-24T09:48:43.546Z,140
2017-10-24T09:58:59.051Z,210
2017-10-24T10:09:13.752Z,175
2017-10-24T10:19:27.443Z,205
2017-10-24T10:29:41.677Z,205
2017-10-24T10:39:57.151Z,130
2017-10-24T10:50:12.804Z,190
2017-10-24T11:00:28.297Z,200
2017-10-24T11:10:43.520Z,285
2017-10-24T11:20:57.336Z,275
2017-10-24T11:31:12.218Z,540
2017-10-24T11:41:26.039Z,285
2017-10-24T11:51:40.988Z,440
2017-10-24T12:01:56.648Z,395
2017-10-24T12:12:12.281Z,160
2017-10-24T12:22:27.896Z,225
2017-10-24T12:32:43.444Z,235
2017-10-24T12:42:57.235Z,175
2017-10-24T12:53:11.309Z,160
2017-10-24T13:03:25.236Z,195
2017-10-24T13:13:39.490Z,290
2017-10-24T13:23:54.782Z,185
2017-10-24T13:34:09.564Z,215
2017-10-24T13:44:24.387Z,135
2017-10-24T13:54:39.142Z,125
2017-10-24T14:04:53.309Z,115
2017-10-24T14:15:09.051Z,120
2017-10-24T14:25:23.152Z,115
2017-10-24T14:35:37.781Z,65
2017-10-24T14:45:52.423Z,40
2017-10-24T14:56:08.119Z,85
2017-10-24T15:06:21.948Z,85
2017-10-24T15:16:36.942Z,45
2017-10-24T15:26:51.739Z,30
2017-10-24T15:37:05.630Z,15
2017-10-24T15:47:19.725Z,10
2017-10-24T15:57:33.526Z,5
2017-10-24T16:07:47.785Z,0
2017-10-24T16:18:03.613Z,0
2017-10-24T16:28:18.220Z,0
2017-10-24T16:38:32.265Z,0
2017-10-24T16:48:47.619Z,0
2017-10-24T16:59:01.511Z,0
2017-10-24T17:09:16.802Z,0
2017-10-24T17:19:31.288Z,0
2017-10-24T17:29:46.965Z,0
2017-10-24T17:40:01.958Z,0
2017-10-24T17:50:16.816Z,0
2017-10-24T18:00:31.157Z,0
2017-10-24T18:10:45.906Z,0
2017-10-24T18:21:00.619Z,0
2017-10-24T18:31:14.375Z,0
2017-10-24T18:41:29.857Z,0
2017-10-24T18:51:43.837Z,0
2017-10-24T19:01:57.619Z,0
2017-10-24T19:12:13.272Z,0
2017-10-24T19:22:28.412Z,0
2017-10-24T19:32:43.601Z,0
2017-10-24T19:42:57.364Z,0
2017-10-24T19:53:11.694Z,0
2017-10-24T20:03:26.119Z,0
2017-10-24T20:13:41.812Z,0
2017-10-24T20:23:56.452Z,0
2017-10-24T20:34:11.945Z,0
2017-10-24T20:44:27.472Z,0
2017-10-24T20:54:41.245Z,0
2017-10-24T21:04:56.763Z,0
2017-10-24T21:15:10.805Z,0
2017-10-24T21:25:26.418Z,0
2017-10-24T21:35:41.765Z,0
2017-10-24T21:45:56.026Z,0
2017-10-24T21:56:10.247Z,0
2017-10-24T22:06:25.507Z,0
2017-10-24T22:16:40.707Z,0
2017-10-24T22:26:55.802Z,0
2017-10-24T22:37:09.726Z,0
2017-10-24T22:47:24.407Z,0
2017-10-24T22:57:39.820Z,0
2017-10-24T23:07:53.715Z,0
2017-10-24T23:18:08.731Z,0
2017-10-24T23:28:24.190Z,0
2017-10-24T23:38:38.043Z,0
2017-10-24T23:48:51.958Z,0
2017-10-24T23:59:06.451Z,0
